Time;durP1;ratioP1;P1;durP2;ratioP2;P2;SDS_P1;SDS_P2;PMS_P1;PMS_P2;Temp;Humidity;BMP_temperature;BMP_pressure;BME280_temperature;BME280_humidity;BME280_pressure;Samples;Min_cycle;Max_cycle;Signal;HPM_P1;HPM_P2
2024/02/26 00:01:07;;;;;;;8.70;7.80;;;8.60;33.80;;;;;;10449262;28;20707;-74
2024/02/26 00:06:11;;;;;;;8.60;7.70;;;8.60;33.70;;;;;;10449033;28;20239;-74
2024/02/26 00:11:15;;;;;;;9.60;8.63;;;8.60;33.70;;;;;;10451421;28;20771;-74
2024/02/26 00:16:18;;;;;;;8.43;7.13;;;8.50;33.70;;;;;;10438594;28;20228;-73
2024/02/26 00:21:22;;;;;;;11.57;9.37;;;8.50;33.60;;;;;;10449237;28;20243;-74
2024/02/26 00:26:27;;;;;;;11.43;9.90;;;8.50;33.70;;;;;;10451843;28;20799;-74
2024/02/26 00:31:30;;;;;;;9.20;8.30;;;8.40;33.90;;;;;;10447593;28;20247;-73
2024/02/26 00:36:33;;;;;;;8.57;7.77;;;8.40;33.80;;;;;;10447190;28;20241;-74
2024/02/26 00:41:41;;;;;;;9.80;7.87;;;8.40;33.70;;;;;;10444505;28;20232;-74
2024/02/26 00:46:44;;;;;;;9.53;8.57;;;8.40;34.30;;;;;;10447528;28;20447;-73
2024/02/26 00:51:47;;;;;;;8.37;7.57;;;8.30;33.80;;;;;;10445353;28;20575;-73
2024/02/26 00:56:52;;;;;;;7.40;6.70;;;8.30;33.60;;;;;;10450993;28;20252;-73
2024/02/26 01:01:55;;;;;;;7.87;7.07;;;8.30;33.70;;;;;;10446623;28;20228;-74
2024/02/26 01:06:58;;;;;;;7.73;7.03;;;8.20;33.40;;;;;;10446407;28;20237;-72
2024/02/26 01:12:04;;;;;;;7.77;7.07;;;8.20;34.30;;;;;;10441476;28;20232;-73
2024/02/26 01:17:07;;;;;;;7.80;6.50;;;8.10;33.70;;;;;;10448081;28;20240;-73
2024/02/26 01:22:11;;;;;;;7.03;6.33;;;8.10;33.70;;;;;;10446991;28;20298;-73
2024/02/26 01:27:16;;;;;;;6.80;6.20;;;8.00;33.70;;;;;;10445019;28;20316;-73
2024/02/26 01:32:19;;;;;;;6.80;6.20;;;8.00;33.80;;;;;;10445873;28;20758;-73
2024/02/26 01:37:23;;;;;;;7.50;6.77;;;7.90;33.50;;;;;;10441844;28;20597;-72
2024/02/26 01:42:27;;;;;;;5.90;5.40;;;7.90;33.60;;;;;;10443302;28;20263;-72
2024/02/26 01:47:30;;;;;;;6.50;5.90;;;7.80;33.80;;;;;;10441274;28;20228;-72
2024/02/26 01:52:34;;;;;;;7.27;6.57;;;7.80;33.70;;;;;;10441345;28;20322;-72
2024/02/26 01:57:38;;;;;;;6.87;6.17;;;7.70;33.70;;;;;;10442212;28;20233;-72
2024/02/26 02:02:44;;;;;;;6.97;6.33;;;7.70;33.90;;;;;;10437845;28;20301;-72
2024/02/26 02:07:48;;;;;;;6.47;5.83;;;7.60;33.80;;;;;;10437721;28;20256;-72
2024/02/26 02:12:53;;;;;;;7.43;5.93;;;7.50;33.90;;;;;;10440036;28;20224;-72
2024/02/26 02:17:57;;;;;;;6.60;6.00;;;7.50;34.10;;;;;;10439970;28;20693;-72
2024/02/26 02:23:02;;;;;;;5.77;5.27;;;7.50;34.10;;;;;;10433376;28;20654;-72
2024/02/26 02:28:06;;;;;;;6.70;6.10;;;7.40;34.10;;;;;;10442966;28;20225;-73
2024/02/26 02:33:11;;;;;;;6.33;5.73;;;7.40;34.10;;;;;;10437313;28;20244;-73
2024/02/26 02:38:17;;;;;;;6.10;5.50;;;7.40;34.10;;;;;;10439484;28;20232;-73
2024/02/26 02:43:20;;;;;;;7.10;6.50;;;7.30;34.20;;;;;;10439836;28;20225;-73
2024/02/26 02:48:23;;;;;;;7.47;6.77;;;7.30;34.20;;;;;;10438445;28;20623;-73
2024/02/26 02:53:28;;;;;;;7.00;6.30;;;7.30;34.30;;;;;;10441370;28;20228;-73
2024/02/26 02:58:32;;;;;;;6.83;6.20;;;7.20;34.40;;;;;;10438999;28;20834;-73
2024/02/26 03:03:36;;;;;;;7.40;6.70;;;7.20;34.20;;;;;;10442683;28;20225;-73
2024/02/26 03:08:41;;;;;;;7.47;6.80;;;7.20;34.40;;;;;;10438153;28;20246;-72
2024/02/26 03:13:45;;;;;;;6.60;5.97;;;7.10;34.50;;;;;;10438430;28;20221;-73
2024/02/26 03:18:48;;;;;;;8.37;7.00;;;7.00;34.40;;;;;;10439855;28;20750;-73
2024/02/26 03:23:53;;;;;;;7.00;6.40;;;7.00;34.50;;;;;;10436716;28;20939;-73
2024/02/26 03:28:56;;;;;;;7.43;6.73;;;6.90;34.80;;;;;;10433782;28;20742;-73
2024/02/26 03:33:59;;;;;;;7.50;6.80;;;6.90;34.80;;;;;;10439015;28;20581;-72
2024/02/26 03:39:07;;;;;;;7.53;6.57;;;6.90;34.90;;;;;;10438275;28;20609;-73
2024/02/26 03:44:11;;;;;;;7.13;6.53;;;6.90;35.10;;;;;;10433704;28;20302;-73
2024/02/26 03:49:14;;;;;;;7.37;6.70;;;6.90;34.90;;;;;;10436291;28;20225;-73
2024/02/26 03:54:19;;;;;;;7.73;6.93;;;6.80;34.90;;;;;;10434247;28;20229;-72
2024/02/26 03:59:24;;;;;;;7.73;7.03;;;6.80;35.30;;;;;;10431129;28;20241;-72
2024/02/26 04:04:27;;;;;;;6.27;5.70;;;6.90;35.30;;;;;;10439399;28;20331;-73
2024/02/26 04:09:33;;;;;;;7.57;6.87;;;6.90;35.30;;;;;;10441147;28;20316;-73
2024/02/26 04:14:37;;;;;;;8.03;7.23;;;6.90;35.80;;;;;;10438087;28;20239;-73
2024/02/26 04:19:41;;;;;;;7.63;6.93;;;6.90;35.50;;;;;;10432897;28;20249;-72
2024/02/26 04:24:46;;;;;;;7.27;6.57;;;6.90;35.50;;;;;;10437891;28;20232;-72
2024/02/26 04:29:49;;;;;;;5.70;5.20;;;6.90;35.70;;;;;;10435411;28;20600;-72
2024/02/26 04:34:52;;;;;;;6.80;6.10;;;7.00;35.40;;;;;;10446520;28;20232;-73
2024/02/26 04:39:58;;;;;;;7.00;6.30;;;7.00;35.50;;;;;;10448368;28;20710;-73
2024/02/26 04:45:01;;;;;;;7.40;6.00;;;6.90;35.60;;;;;;10441612;28;20576;-72
2024/02/26 04:50:05;;;;;;;6.90;6.30;;;6.90;35.50;;;;;;10445546;28;20221;-72
2024/02/26 04:55:10;;;;;;;7.57;6.70;;;6.90;35.60;;;;;;10445156;28;20591;-73
2024/02/26 05:00:15;;;;;;;6.27;5.77;;;6.90;35.80;;;;;;10442107;28;20227;-73
2024/02/26 05:05:18;;;;;;;7.07;6.37;;;6.90;35.60;;;;;;10442632;28;20217;-72
2024/02/26 05:10:23;;;;;;;7.30;6.60;;;6.90;35.60;;;;;;10444920;28;20243;-72
2024/02/26 05:15:27;;;;;;;7.70;6.90;;;6.90;35.80;;;;;;10440643;28;20635;-72
2024/02/26 05:20:31;;;;;;;7.10;6.40;;;6.90;35.50;;;;;;10440802;28;20229;-72
2024/02/26 05:25:35;;;;;;;7.50;6.80;;;6.80;35.50;;;;;;10442544;28;20233;-73
2024/02/26 05:30:39;;;;;;;7.07;6.37;;;6.80;35.80;;;;;;10445051;28;20235;-73
2024/02/26 05:35:43;;;;;;;6.10;5.50;;;6.80;35.80;;;;;;10444923;28;20287;-72
2024/02/26 05:40:47;;;;;;;6.87;6.27;;;6.80;36.00;;;;;;10445393;28;20229;-73
2024/02/26 05:45:51;;;;;;;6.77;6.07;;;6.80;36.20;;;;;;10439938;28;20228;-74
2024/02/26 05:50:55;;;;;;;5.57;5.07;;;6.80;36.10;;;;;;10437115;28;20302;-72
2024/02/26 05:56:00;;;;;;;6.70;6.10;;;6.90;36.10;;;;;;10439383;28;20319;-73
2024/02/26 06:01:03;;;;;;;6.77;6.17;;;6.90;36.40;;;;;;10434363;28;20655;-73
2024/02/26 06:06:07;;;;;;;6.70;6.10;;;6.90;36.00;;;;;;10441126;28;20227;-73
2024/02/26 06:11:12;;;;;;;7.30;6.60;;;6.90;36.10;;;;;;10435421;28;20307;-73
2024/02/26 06:16:16;;;;;;;7.10;6.27;;;6.90;36.30;;;;;;10439860;28;20224;-76
2024/02/26 06:21:19;;;;;;;8.60;7.53;;;6.90;36.10;;;;;;10442649;28;20874;-74
2024/02/26 06:26:23;;;;;;;8.47;7.57;;;6.90;36.70;;;;;;10442125;28;20236;-76
2024/02/26 06:31:27;;;;;;;8.43;7.53;;;7.00;37.50;;;;;;10439068;28;20235;-76
2024/02/26 06:36:31;;;;;;;6.60;6.00;;;7.10;37.10;;;;;;10443948;28;20252;-76
2024/02/26 06:41:38;;;;;;;8.20;7.40;;;7.10;36.70;;;;;;10441648;28;20614;-75
2024/02/26 06:46:41;;;;;;;7.97;7.27;;;7.10;36.80;;;;;;10436677;28;20309;-75
2024/02/26 06:51:45;;;;;;;8.23;7.33;;;7.10;36.50;;;;;;10439082;28;20763;-76
2024/02/26 06:56:49;;;;;;;8.73;7.83;;;7.10;36.50;;;;;;10439634;28;20300;-76
2024/02/26 07:01:54;;;;;;;8.00;7.20;;;7.10;36.80;;;;;;10436856;28;20638;-76
2024/02/26 07:06:58;;;;;;;8.80;7.90;;;7.10;36.70;;;;;;10442456;28;20223;-76
2024/02/26 07:12:03;;;;;;;9.13;8.20;;;7.10;36.80;;;;;;10442847;28;20315;-76
2024/02/26 07:17:06;;;;;;;8.57;7.73;;;7.10;37.10;;;;;;10440950;28;20300;-76
2024/02/26 07:22:10;;;;;;;8.20;7.40;;;7.10;36.90;;;;;;10436263;28;20243;-75
2024/02/26 07:27:17;;;;;;;8.10;7.30;;;7.10;37.20;;;;;;10438521;28;20223;-75
2024/02/26 07:32:20;;;;;;;8.87;7.97;;;7.20;37.30;;;;;;10441240;28;21127;-75
2024/02/26 07:37:24;;;;;;;9.40;8.50;;;7.20;37.00;;;;;;10441252;28;20636;-74
2024/02/26 07:42:28;;;;;;;9.60;8.57;;;7.30;37.20;;;;;;10441368;28;20235;-74
2024/02/26 07:47:34;;;;;;;9.97;8.97;;;7.30;37.40;;;;;;10438083;28;20227;-74
2024/02/26 07:52:37;;;;;;;9.83;8.83;;;7.40;37.30;;;;;;10435400;28;20455;-74
2024/02/26 07:57:44;;;;;;;10.07;9.07;;;7.40;37.70;;;;;;10438652;28;20236;-75
2024/02/26 08:02:47;;;;;;;9.50;8.50;;;7.50;39.00;;;;;;10443717;28;20660;-74
2024/02/26 08:07:51;;;;;;;10.50;9.43;;;7.60;37.60;;;;;;10446961;28;20306;-74
2024/02/26 08:13:04;;;;;;;10.10;9.10;;;7.60;37.80;;;;;;10443656;28;20225;-75
2024/02/26 08:18:07;;;;;;;10.40;9.37;;;7.80;38.40;;;;;;10448581;28;20247;-74
2024/02/26 08:23:11;;;;;;;10.13;9.13;;;7.90;38.20;;;;;;10445123;28;20225;-74
2024/02/26 08:28:17;;;;;;;10.27;9.27;;;8.00;38.20;;;;;;10446718;28;20286;-74
2024/02/26 08:33:21;;;;;;;9.70;8.70;;;8.10;38.40;;;;;;10449992;28;20621;-75
2024/02/26 08:38:24;;;;;;;10.27;9.30;;;8.20;37.80;;;;;;10445864;28;20311;-75
2024/02/26 08:43:29;;;;;;;10.67;9.60;;;8.20;37.80;;;;;;10445607;28;20738;-75
2024/02/26 08:48:32;;;;;;;10.03;9.07;;;8.30;38.10;;;;;;10446142;28;20802;-75
2024/02/26 08:53:36;;;;;;;8.97;8.07;;;8.40;37.90;;;;;;10444353;28;20233;-75
2024/02/26 08:58:48;;;;;;;9.93;8.70;;;8.40;37.80;;;;;;10446283;28;20962;-75
2024/02/26 09:03:52;;;;;;;10.20;9.20;;;8.50;38.20;;;;;;10445873;28;20229;-76
2024/02/26 09:08:55;;;;;;;10.20;9.20;;;8.50;38.10;;;;;;10438764;28;20291;-76
2024/02/26 09:14:05;;;;;;;9.83;8.90;;;8.60;38.40;;;;;;10439356;28;20243;-76
2024/02/26 09:19:08;;;;;;;10.23;9.10;;;8.70;38.80;;;;;;10440959;28;20848;-75
2024/02/26 09:24:12;;;;;;;9.70;8.60;;;8.80;38.70;;;;;;10433030;28;20220;-76
2024/02/26 09:29:17;;;;;;;8.57;7.73;;;8.80;38.60;;;;;;10435527;28;20236;-76
2024/02/26 09:34:20;;;;;;;9.47;8.30;;;8.90;38.90;;;;;;10441872;28;20591;-76
2024/02/26 09:39:23;;;;;;;7.97;7.17;;;9.00;38.60;;;;;;10442875;28;20692;-76
2024/02/26 09:44:33;;;;;;;7.37;6.67;;;9.10;38.40;;;;;;10443386;28;20245;-74
2024/02/26 09:49:37;;;;;;;7.73;6.63;;;9.10;38.70;;;;;;10444045;28;20233;-74
2024/02/26 09:54:42;;;;;;;6.60;6.00;;;9.20;38.40;;;;;;10437566;28;20263;-76
2024/02/26 09:59:50;;;;;;;6.63;6.03;;;9.30;38.30;;;;;;10445007;28;20274;-75
2024/02/26 10:04:55;;;;;;;6.30;5.60;;;9.50;38.70;;;;;;10442433;28;20229;-75
2024/02/26 10:10:00;;;;;;;7.00;5.60;;;9.60;38.10;;;;;;10446109;28;20252;-75
2024/02/26 10:15:06;;;;;;;6.87;6.17;;;9.70;38.90;;;;;;10447208;28;20260;-75
2024/02/26 10:20:14;;;;;;;6.70;6.10;;;10.00;37.50;;;;;;10440611;28;20232;-75
2024/02/26 10:25:19;;;;;;;7.20;6.53;;;10.10;37.50;;;;;;10435145;28;20237;-76
2024/02/26 10:30:25;;;;;;;6.97;6.30;;;10.30;37.50;;;;;;10441905;28;20354;-79
2024/02/26 10:35:30;;;;;;;6.77;6.17;;;10.50;37.40;;;;;;10438306;28;20239;-77
2024/02/26 10:40:34;;;;;;;6.37;5.77;;;10.70;37.30;;;;;;10445750;28;20232;-79
2024/02/26 10:45:41;;;;;;;5.43;4.93;;;10.80;36.90;;;;;;10436404;28;21521;-77
2024/02/26 10:50:45;;;;;;;6.53;5.93;;;11.00;36.80;;;;;;10435888;28;20642;-74
2024/02/26 10:55:51;;;;;;;6.60;6.00;;;11.10;36.90;;;;;;10428986;28;20229;-75
2024/02/26 11:00:58;;;;;;;6.30;5.80;;;11.20;36.90;;;;;;10437691;28;20318;-77
2024/02/26 11:06:02;;;;;;;6.00;5.40;;;11.30;36.90;;;;;;10437251;28;20224;-77
2024/02/26 11:11:06;;;;;;;5.93;5.43;;;11.40;36.60;;;;;;10439882;28;20264;-77
2024/02/26 11:16:12;;;;;;;5.30;4.80;;;11.40;36.50;;;;;;10434422;28;20252;-77
2024/02/26 11:21:17;;;;;;;3.50;3.20;;;11.60;36.60;;;;;;10432127;28;20224;-77
2024/02/26 11:26:22;;;;;;;3.93;3.63;;;11.70;36.20;;;;;;10439881;28;20244;-77
2024/02/26 11:31:27;;;;;;;3.90;3.50;;;11.80;36.40;;;;;;10430127;28;20313;-75
2024/02/26 11:36:31;;;;;;;3.67;3.37;;;12.00;36.20;;;;;;10438416;28;20613;-75
2024/02/26 11:41:34;;;;;;;3.73;3.33;;;12.10;36.20;;;;;;10427120;28;20233;-76
2024/02/26 11:46:42;;;;;;;3.87;3.17;;;12.30;36.10;;;;;;10441573;28;20235;-74
2024/02/26 11:51:52;;;;;;;2.80;2.60;;;12.50;35.50;;;;;;10436342;28;20236;-75
2024/02/26 11:56:59;;;;;;;2.40;2.20;;;12.70;34.90;;;;;;10436458;28;20317;-76
2024/02/26 12:02:04;;;;;;;2.40;2.20;;;12.90;34.80;;;;;;10434042;28;20229;-76
2024/02/26 12:07:07;;;;;;;2.17;2.07;;;13.00;34.60;;;;;;10430106;28;20268;-75
2024/02/26 12:12:11;;;;;;;2.40;2.20;;;13.20;34.80;;;;;;10428992;28;20288;-76
2024/02/26 12:17:23;;;;;;;3.63;2.53;;;13.30;34.50;;;;;;10433986;28;20283;-76
2024/02/26 12:22:27;;;;;;;2.57;2.37;;;13.50;33.80;;;;;;10439685;28;20240;-79
2024/02/26 12:27:31;;;;;;;2.70;2.50;;;13.60;34.30;;;;;;10446310;28;20247;-77
2024/02/26 12:32:37;;;;;;;2.40;2.23;;;13.80;34.40;;;;;;10452443;28;20275;-77
2024/02/26 12:37:40;;;;;;;3.40;2.70;;;13.90;33.90;;;;;;10450491;28;20218;-76
2024/02/26 12:42:47;;;;;;;2.53;2.33;;;14.00;34.80;;;;;;10448624;28;20228;-76
2024/02/26 12:47:51;;;;;;;2.80;2.60;;;14.10;33.90;;;;;;10441394;28;20221;-76
2024/02/26 12:52:55;;;;;;;2.93;2.37;;;14.30;34.10;;;;;;10443735;28;20221;-76
2024/02/26 12:57:59;;;;;;;2.27;2.07;;;14.30;33.40;;;;;;10437667;28;20340;-76
2024/02/26 13:03:04;;;;;;;2.30;2.10;;;14.40;33.30;;;;;;10443592;28;20312;-76
2024/02/26 13:08:08;;;;;;;2.10;1.90;;;14.40;32.90;;;;;;10442651;28;20243;-76
2024/02/26 13:13:12;;;;;;;1.90;1.80;;;14.50;33.20;;;;;;10438538;28;20221;-77
2024/02/26 13:18:17;;;;;;;2.17;1.80;;;14.50;33.10;;;;;;10447502;28;20312;-76
2024/02/26 13:23:21;;;;;;;2.83;1.80;;;14.60;32.70;;;;;;10441810;28;20233;-76
2024/02/26 13:28:27;;;;;;;2.30;1.90;;;14.70;32.70;;;;;;10435095;28;20229;-78
2024/02/26 13:33:32;;;;;;;2.50;2.30;;;14.80;32.60;;;;;;10448267;28;20340;-76
2024/02/26 13:38:35;;;;;;;2.53;1.80;;;14.80;31.90;;;;;;10440965;28;20280;-76
2024/02/26 13:43:39;;;;;;;1.67;1.57;;;14.90;32.00;;;;;;10437229;28;20672;-76
2024/02/26 13:48:43;;;;;;;1.70;1.60;;;15.00;32.10;;;;;;10441836;28;20260;-77
2024/02/26 13:53:47;;;;;;;1.47;1.37;;;15.00;31.30;;;;;;10431606;28;21197;-76
2024/02/26 13:58:50;;;;;;;1.60;1.50;;;15.10;31.80;;;;;;10442028;28;20229;-76
2024/02/26 14:03:57;;;;;;;1.70;1.53;;;15.10;31.90;;;;;;10445557;28;20229;-76
2024/02/26 14:09:01;;;;;;;3.20;1.67;;;15.20;31.10;;;;;;10438141;28;20683;-76
2024/02/26 14:14:04;;;;;;;1.47;1.37;;;15.30;31.10;;;;;;10439353;28;20221;-76
2024/02/26 14:19:09;;;;;;;1.33;1.23;;;15.30;31.30;;;;;;10438109;28;20243;-76
2024/02/26 14:24:16;;;;;;;2.10;1.53;;;15.40;30.80;;;;;;10431589;28;20244;-76
2024/02/26 14:29:20;;;;;;;4.80;1.80;;;15.40;31.50;;;;;;10437159;28;20232;-76
2024/02/26 14:34:24;;;;;;;1.67;1.57;;;15.40;31.90;;;;;;10441222;28;20229;-77
2024/02/26 14:39:29;;;;;;;1.60;1.50;;;15.40;30.70;;;;;;10440198;28;20660;-77
2024/02/26 14:44:32;;;;;;;1.60;1.50;;;15.40;30.90;;;;;;10443570;28;20798;-76
2024/02/26 14:49:37;;;;;;;1.50;1.40;;;15.50;31.50;;;;;;10437359;28;20324;-76
2024/02/26 14:54:40;;;;;;;1.20;1.10;;;15.50;31.00;;;;;;10436243;28;20253;-77
2024/02/26 14:59:44;;;;;;;2.50;1.50;;;15.50;31.10;;;;;;10441261;28;20257;-76
2024/02/26 15:04:49;;;;;;;1.70;1.60;;;15.50;30.80;;;;;;10435103;28;20621;-76
2024/02/26 15:09:56;;;;;;;1.50;1.40;;;15.50;30.90;;;;;;10437581;28;20224;-76
2024/02/26 15:15:00;;;;;;;1.00;1.00;;;15.50;31.10;;;;;;10437434;28;20226;-76
2024/02/26 15:20:07;;;;;;;3.00;1.40;;;15.50;30.50;;;;;;10432661;28;20224;-76
2024/02/26 15:25:12;;;;;;;1.13;1.10;;;15.50;29.90;;;;;;10433897;28;20660;-76
2024/02/26 15:30:18;;;;;;;1.30;1.20;;;15.50;30.20;;;;;;10427078;28;20798;-77
2024/02/26 15:35:23;;;;;;;2.67;1.70;;;15.50;30.80;;;;;;10432939;28;20232;-76
2024/02/26 15:40:26;;;;;;;2.20;2.00;;;15.40;30.90;;;;;;10430522;28;20329;-76
2024/02/26 15:45:32;;;;;;;2.20;2.00;;;15.40;31.30;;;;;;10424247;28;20248;-76
2024/02/26 15:50:41;;;;;;;1.80;1.70;;;15.40;31.40;;;;;;10434112;28;20265;-76
2024/02/26 15:55:44;;;;;;;1.90;1.70;;;15.30;31.30;;;;;;10432173;28;20228;-76
2024/02/26 16:00:49;;;;;;;2.57;1.90;;;15.30;31.60;;;;;;10431135;28;20230;-76
2024/02/26 16:05:54;;;;;;;2.20;2.00;;;15.20;31.60;;;;;;10433791;28;20237;-76
2024/02/26 16:10:57;;;;;;;2.40;2.20;;;15.10;31.50;;;;;;10434339;28;20239;-76
2024/02/26 16:16:05;;;;;;;1.97;1.80;;;15.00;31.90;;;;;;10432251;28;20340;-76
2024/02/26 16:21:10;;;;;;;2.83;1.93;;;15.00;31.70;;;;;;10431610;28;20342;-76
2024/02/26 16:26:14;;;;;;;2.63;2.20;;;14.90;32.00;;;;;;10435145;28;20602;-77
2024/02/26 16:31:17;;;;;;;2.27;2.07;;;14.80;31.90;;;;;;10430069;28;20229;-76
2024/02/26 16:36:21;;;;;;;2.87;1.90;;;14.80;31.90;;;;;;10434122;28;20244;-76
2024/02/26 16:41:25;;;;;;;2.10;1.90;;;14.80;31.90;;;;;;10430762;28;20232;-76
2024/02/26 16:46:28;;;;;;;2.20;2.10;;;14.70;31.80;;;;;;10435145;28;20221;-75
2024/02/26 16:51:33;;;;;;;2.00;1.90;;;14.70;31.80;;;;;;10435721;28;20638;-76
2024/02/26 16:56:36;;;;;;;2.40;2.20;;;14.60;31.80;;;;;;10440915;28;20229;-77
2024/02/26 17:01:39;;;;;;;2.20;2.00;;;14.60;31.80;;;;;;10444931;28;20230;-78
2024/02/26 17:06:44;;;;;;;2.37;2.07;;;14.50;32.40;;;;;;10443006;28;20314;-77
2024/02/26 17:11:48;;;;;;;2.27;2.00;;;14.40;31.60;;;;;;10444587;28;20272;-78
2024/02/26 17:16:51;;;;;;;2.00;1.90;;;14.30;31.50;;;;;;10445207;28;20317;-77
2024/02/26 17:21:56;;;;;;;1.90;1.80;;;14.30;31.50;;;;;;10442638;28;20260;-77
2024/02/26 17:26:59;;;;;;;1.67;1.57;;;14.20;31.50;;;;;;10443264;28;20232;-77
2024/02/26 17:32:03;;;;;;;2.00;1.80;;;14.10;31.60;;;;;;10439604;28;21658;-76
2024/02/26 17:37:14;;;;;;;2.10;1.90;;;14.00;31.60;;;;;;10443891;28;20220;-75
2024/02/26 17:42:18;;;;;;;1.70;1.60;;;14.00;31.60;;;;;;10440178;28;20229;-76
2024/02/26 17:47:21;;;;;;;1.70;1.60;;;13.90;31.70;;;;;;10436827;28;20244;-76
2024/02/26 17:52:26;;;;;;;2.67;1.80;;;13.90;31.70;;;;;;10439382;28;20773;-76
2024/02/26 17:57:29;;;;;;;2.43;1.80;;;13.80;31.50;;;;;;10439794;28;20221;-77
2024/02/26 18:02:32;;;;;;;1.60;1.50;;;13.80;31.50;;;;;;10441808;28;20234;-77
2024/02/26 18:07:37;;;;;;;1.70;1.40;;;13.70;31.40;;;;;;10437261;28;20315;-76
2024/02/26 18:12:41;;;;;;;1.50;1.40;;;13.70;31.40;;;;;;10440008;28;20339;-76
2024/02/26 18:17:46;;;;;;;2.73;1.67;;;13.70;31.60;;;;;;10437542;28;20244;-76
2024/02/26 18:22:51;;;;;;;1.80;1.70;;;13.70;31.50;;;;;;10434080;28;20794;-76
2024/02/26 18:27:54;;;;;;;1.70;1.60;;;13.60;31.00;;;;;;10433089;28;20646;-76
2024/02/26 18:32:58;;;;;;;1.53;1.43;;;13.60;31.30;;;;;;10431389;28;20596;-76
2024/02/26 18:38:03;;;;;;;1.73;1.50;;;13.60;31.30;;;;;;10427625;28;20218;-76
2024/02/26 18:43:06;;;;;;;1.57;1.40;;;13.60;30.90;;;;;;10433380;28;20228;-76
2024/02/26 18:48:10;;;;;;;1.77;1.67;;;13.60;31.00;;;;;;10434215;28;20320;-76
2024/02/26 18:53:14;;;;;;;2.20;2.00;;;13.60;31.20;;;;;;10428031;28;20232;-76
2024/02/26 18:58:18;;;;;;;2.30;2.10;;;13.50;30.90;;;;;;10430690;28;20229;-76
2024/02/26 19:03:21;;;;;;;2.03;1.93;;;13.50;31.20;;;;;;10426769;28;20229;-76
2024/02/26 19:08:25;;;;;;;2.93;2.73;;;13.50;31.50;;;;;;10429222;28;20240;-76
2024/02/26 19:13:29;;;;;;;3.20;2.90;;;13.40;31.30;;;;;;10429458;28;20225;-76
2024/02/26 19:18:32;;;;;;;3.40;3.10;;;13.40;31.30;;;;;;10429720;28;21010;-76
2024/02/26 19:23:37;;;;;;;3.60;3.30;;;13.30;31.20;;;;;;10424780;28;20257;-76
2024/02/26 19:28:44;;;;;;;4.60;4.10;;;13.20;31.30;;;;;;10425221;28;20325;-76
2024/02/26 19:33:47;;;;;;;4.40;4.00;;;13.20;31.40;;;;;;10435998;28;20224;-76
2024/02/26 19:38:52;;;;;;;4.90;4.40;;;13.20;31.50;;;;;;10434369;28;20311;-76
2024/02/26 19:43:55;;;;;;;5.23;4.73;;;13.10;31.50;;;;;;10425985;28;20286;-76
2024/02/26 19:49:00;;;;;;;5.67;5.07;;;13.00;31.30;;;;;;10427582;28;20229;-76
2024/02/26 19:54:06;;;;;;;5.60;5.10;;;13.00;31.40;;;;;;10425031;28;20307;-76
2024/02/26 19:59:09;;;;;;;5.60;5.10;;;12.90;31.40;;;;;;10431000;28;20248;-76
2024/02/26 20:04:13;;;;;;;6.17;5.57;;;12.80;31.30;;;;;;10425007;28;20236;-76
2024/02/26 20:09:19;;;;;;;6.40;5.53;;;12.70;31.50;;;;;;10432741;28;20767;-76
2024/02/26 20:14:23;;;;;;;5.60;4.90;;;12.60;31.60;;;;;;10431244;28;20271;-76
2024/02/26 20:19:29;;;;;;;6.47;5.87;;;12.50;31.60;;;;;;10426535;28;20237;-76
2024/02/26 20:24:34;;;;;;;5.90;5.40;;;12.40;31.80;;;;;;10428618;28;20232;-76
2024/02/26 20:29:38;;;;;;;8.27;6.70;;;12.30;31.90;;;;;;10438835;28;20313;-76
2024/02/26 20:34:42;;;;;;;6.57;5.97;;;12.30;31.90;;;;;;10435224;28;20817;-76
2024/02/26 20:39:47;;;;;;;6.47;5.83;;;12.20;31.80;;;;;;10435938;28;20272;-76
2024/02/26 20:44:50;;;;;;;7.93;6.00;;;12.20;31.90;;;;;;10432170;28;20229;-76
2024/02/26 20:49:53;;;;;;;6.77;6.07;;;12.10;31.80;;;;;;10436393;28;20236;-76
2024/02/26 20:54:58;;;;;;;6.70;6.10;;;12.10;31.90;;;;;;10438142;28;20221;-76
2024/02/26 21:00:01;;;;;;;6.77;6.17;;;12.00;31.80;;;;;;10439258;28;20217;-76
2024/02/26 21:05:05;;;;;;;6.70;6.10;;;12.00;31.90;;;;;;10430623;28;20303;-76
2024/02/26 21:10:11;;;;;;;7.07;6.37;;;11.90;31.90;;;;;;10438593;28;20253;-76
2024/02/26 21:15:16;;;;;;;6.23;5.60;;;11.80;31.80;;;;;;10441486;28;20229;-76
2024/02/26 21:20:20;;;;;;;7.40;6.77;;;11.80;31.70;;;;;;10439543;28;20221;-76
2024/02/26 21:25:24;;;;;;;7.03;6.33;;;11.70;31.80;;;;;;10433768;28;20759;-77
2024/02/26 21:30:28;;;;;;;7.10;6.50;;;11.60;31.90;;;;;;10433199;28;20822;-76
2024/02/26 21:35:33;;;;;;;7.03;6.43;;;11.60;32.00;;;;;;10433551;28;20229;-77
2024/02/26 21:40:38;;;;;;;7.97;7.17;;;11.50;31.90;;;;;;10435981;28;20323;-76
2024/02/26 21:45:42;;;;;;;7.83;7.03;;;11.50;32.00;;;;;;10433249;28;20324;-76
2024/02/26 21:50:46;;;;;;;6.73;6.13;;;11.40;31.90;;;;;;10432970;28;20233;-76
2024/02/26 21:55:50;;;;;;;7.50;6.80;;;11.40;31.80;;;;;;10436235;28;20225;-76
2024/02/26 22:00:54;;;;;;;7.47;6.67;;;11.30;31.90;;;;;;10440435;28;20745;-76
2024/02/26 22:05:57;;;;;;;7.83;7.10;;;11.20;31.80;;;;;;10434316;28;20260;-76
2024/02/26 22:11:02;;;;;;;7.80;7.00;;;11.10;31.80;;;;;;10438930;28;20233;-76
2024/02/26 22:16:06;;;;;;;7.93;7.13;;;11.10;32.00;;;;;;10436510;28;20323;-76
2024/02/26 22:21:10;;;;;;;7.80;7.10;;;11.00;32.00;;;;;;10437376;28;20235;-76
2024/02/26 22:26:16;;;;;;;7.90;7.10;;;10.90;32.00;;;;;;10436983;28;20240;-76
2024/02/26 22:31:19;;;;;;;7.90;6.80;;;10.90;32.10;;;;;;10440952;28;20259;-77
2024/02/26 22:36:22;;;;;;;8.17;7.40;;;10.80;32.00;;;;;;10451174;28;20234;-75
2024/02/26 22:41:27;;;;;;;9.40;7.50;;;10.80;32.20;;;;;;10489062;28;20232;-75
2024/02/26 22:46:30;;;;;;;8.30;7.47;;;10.70;32.20;;;;;;10487663;28;20307;-75
2024/02/26 22:51:33;;;;;;;7.73;7.00;;;10.60;32.10;;;;;;10488150;28;20650;-74
2024/02/26 22:56:38;;;;;;;7.60;6.90;;;10.60;32.30;;;;;;10487784;28;20753;-75
2024/02/26 23:01:41;;;;;;;8.53;6.80;;;10.50;32.40;;;;;;10487288;28;20238;-74
2024/02/26 23:06:44;;;;;;;7.50;6.80;;;10.50;32.40;;;;;;10487476;28;20272;-74
2024/02/26 23:11:49;;;;;;;8.27;7.40;;;10.50;32.40;;;;;;10488263;28;20232;-75
2024/02/26 23:16:52;;;;;;;8.43;7.40;;;10.40;32.30;;;;;;10487693;28;20228;-75
2024/02/26 23:21:56;;;;;;;8.67;7.87;;;10.30;32.30;;;;;;10486980;28;20239;-75
2024/02/26 23:27:00;;;;;;;8.47;7.67;;;10.20;32.10;;;;;;10460310;28;20232;-75
2024/02/26 23:32:04;;;;;;;8.57;7.80;;;10.10;32.50;;;;;;10487010;28;20239;-75
2024/02/26 23:37:07;;;;;;;9.03;8.10;;;10.00;33.30;;;;;;10485157;28;20228;-75
2024/02/26 23:42:12;;;;;;;8.00;7.20;;;9.90;33.60;;;;;;10494399;28;20613;-75
2024/02/26 23:47:15;;;;;;;7.13;6.53;;;9.90;34.00;;;;;;10495315;28;20235;-75
2024/02/26 23:52:18;;;;;;;8.10;7.40;;;9.80;33.90;;;;;;10494066;28;20324;-75
2024/02/26 23:57:23;;;;;;;8.30;7.50;;;9.90;34.10;;;;;;10495493;28;20227;-74
